createdAt,value
2024-03-12T00:01:10.169Z,8.30
2024-03-12T00:03:44.596Z,8.20
2024-03-12T00:06:12.426Z,8.20
2024-03-12T00:08:40.814Z,8.30
2024-03-12T00:11:07.820Z,8.30
2024-03-12T00:13:35.313Z,8.20
2024-03-12T00:16:02.242Z,8.20
2024-03-12T00:18:29.119Z,8.20
2024-03-12T00:20:56.054Z,8.20
2024-03-12T00:23:26.806Z,8.20
2024-03-12T00:25:53.582Z,8.20
2024-03-12T00:28:20.723Z,8.10
2024-03-12T00:30:47.457Z,8.10
2024-03-12T00:33:14.384Z,8.20
2024-03-12T00:35:44.696Z,8.10
2024-03-12T00:38:11.910Z,8.10
2024-03-12T00:40:39.891Z,8.10
2024-03-12T00:43:08.656Z,8.20
2024-03-12T00:45:40.236Z,8.20
2024-03-12T00:48:10.918Z,8.20
2024-03-12T00:50:39.487Z,8.10
2024-03-12T00:53:08.550Z,8.10
2024-03-12T00:55:37.419Z,8.10
2024-03-12T00:58:08.640Z,8.00
2024-03-12T01:00:35.509Z,8.00
2024-03-12T01:03:02.566Z,8.10
2024-03-12T01:05:32.700Z,8.00
2024-03-12T01:08:01.141Z,8.00
2024-03-12T01:10:29.730Z,8.00
2024-03-12T01:13:01.825Z,8.10
2024-03-12T01:15:29.999Z,8.00
2024-03-12T01:17:57.861Z,8.00
2024-03-12T01:20:28.478Z,8.00
2024-03-12T01:22:55.970Z,8.10
2024-03-12T01:25:23.875Z,8.10
2024-03-12T01:27:57.240Z,8.10
2024-03-12T01:30:28.293Z,8.10
2024-03-12T01:32:56.433Z,8.20
2024-03-12T01:35:25.720Z,8.10
2024-03-12T01:37:58.192Z,8.20
2024-03-12T01:40:31.450Z,8.10
2024-03-12T01:43:04.983Z,8.10
2024-03-12T01:45:52.174Z,8.20
2024-03-12T01:48:19.248Z,8.10
2024-03-12T01:50:46.026Z,8.10
2024-03-12T01:53:13.472Z,8.10
2024-03-12T01:55:44.680Z,8.10
2024-03-12T01:58:18.411Z,8.10
2024-03-12T02:00:46.694Z,8.10
2024-03-12T02:03:14.054Z,8.10
2024-03-12T02:05:42.677Z,8.00
2024-03-12T02:08:10.709Z,8.10
2024-03-12T02:10:37.532Z,7.90
2024-03-12T02:13:04.513Z,8.10
2024-03-12T02:15:31.636Z,8.10
2024-03-12T02:17:58.502Z,8.00
2024-03-12T02:20:27.937Z,8.00
2024-03-12T02:22:56.584Z,8.00
2024-03-12T02:25:24.491Z,8.10
2024-03-12T02:27:53.860Z,8.00
2024-03-12T02:30:21.164Z,8.10
2024-03-12T02:32:49.390Z,8.10
2024-03-12T02:35:17.458Z,8.00
2024-03-12T02:37:44.981Z,8.10
2024-03-12T02:40:16.650Z,8.10
2024-03-12T02:42:44.625Z,8.00
2024-03-12T02:45:16.074Z,8.00
2024-03-12T02:47:44.141Z,8.10
2024-03-12T02:50:11.258Z,8.00
2024-03-12T02:52:39.054Z,8.20
2024-03-12T02:55:07.297Z,8.20
2024-03-12T02:57:34.274Z,8.20
2024-03-12T03:00:01.538Z,8.20
2024-03-12T03:02:30.231Z,8.20
2024-03-12T03:04:56.952Z,8.20
2024-03-12T03:07:26.052Z,8.20
2024-03-12T03:09:53.183Z,8.20
2024-03-12T03:12:20.405Z,8.10
2024-03-12T03:14:47.303Z,8.20
2024-03-12T03:17:17.238Z,8.20
2024-03-12T03:19:44.185Z,8.10
2024-03-12T03:22:11.052Z,8.10
2024-03-12T03:24:38.576Z,8.10
2024-03-12T03:27:05.690Z,8.10
2024-03-12T03:29:34.397Z,8.10
2024-03-12T03:32:01.533Z,8.10
2024-03-12T03:34:33.311Z,8.10
2024-03-12T03:37:00.771Z,8.10
2024-03-12T03:39:27.724Z,8.10
2024-03-12T03:41:56.286Z,8.10
2024-03-12T03:44:23.734Z,8.20
2024-03-12T03:46:50.702Z,8.20
2024-03-12T03:49:17.697Z,8.10
2024-03-12T03:51:44.529Z,8.00
2024-03-12T03:54:11.290Z,8.10
2024-03-12T03:56:38.795Z,8.10
2024-03-12T03:59:06.700Z,8.10
2024-03-12T04:01:34.661Z,8.00
2024-03-12T04:04:12.657Z,8.20
2024-03-12T04:06:40.225Z,8.10
2024-03-12T04:09:07.183Z,8.10
2024-03-12T04:11:34.939Z,8.20
2024-03-12T04:14:03.648Z,8.20
2024-03-12T04:16:33.093Z,8.20
2024-03-12T04:19:02.616Z,8.10
2024-03-12T04:21:29.474Z,8.10
2024-03-12T04:23:56.479Z,8.10
2024-03-12T04:26:23.403Z,8.10
2024-03-12T04:28:50.277Z,8.20
2024-03-12T04:31:17.688Z,8.20
2024-03-12T04:33:44.686Z,8.10
2024-03-12T04:36:14.916Z,8.10
2024-03-12T04:38:41.800Z,8.10
2024-03-12T04:41:08.617Z,8.20
2024-03-12T04:43:35.530Z,8.20
2024-03-12T04:46:02.328Z,8.10
2024-03-12T04:48:29.086Z,8.20
2024-03-12T04:50:56.379Z,8.10
2024-03-12T04:53:24.308Z,8.00
2024-03-12T04:55:51.283Z,8.10
2024-03-12T04:58:17.994Z,8.10
2024-03-12T05:00:45.013Z,8.20
2024-03-12T05:03:11.800Z,8.20
2024-03-12T05:05:38.521Z,8.20
2024-03-12T05:08:05.603Z,8.30
2024-03-12T05:10:32.267Z,8.20
2024-03-12T05:12:59.146Z,8.20
2024-03-12T05:15:26.149Z,8.20
2024-03-12T05:17:53.716Z,8.20
2024-03-12T05:20:24.349Z,8.20
2024-03-12T05:22:55.136Z,8.20
2024-03-12T05:25:27.773Z,8.20
2024-03-12T05:27:54.688Z,8.20
2024-03-12T05:30:23.980Z,8.20
2024-03-12T05:32:51.422Z,8.20
2024-03-12T05:35:21.194Z,8.10
2024-03-12T05:38:02.620Z,8.10
2024-03-12T05:40:52.710Z,8.10
2024-03-12T05:43:38.193Z,8.20
2024-03-12T05:46:23.565Z,8.10
2024-03-12T05:48:53.656Z,8.10
2024-03-12T05:51:21.290Z,8.10
2024-03-12T05:53:48.521Z,8.20
2024-03-12T05:56:18.299Z,8.20
2024-03-12T05:58:48.998Z,8.10
2024-03-12T06:01:16.743Z,8.20
2024-03-12T06:03:43.835Z,8.10
2024-03-12T06:06:10.818Z,8.00
2024-03-12T06:08:39.232Z,7.90
2024-03-12T06:11:08.892Z,7.90
2024-03-12T06:13:36.001Z,7.80
2024-03-12T06:16:06.198Z,7.80
2024-03-12T06:18:33.181Z,7.70
2024-03-12T06:21:00.072Z,7.70
2024-03-12T06:23:27.188Z,7.60
2024-03-12T06:25:54.618Z,7.60
2024-03-12T06:28:23.563Z,7.70
2024-03-12T06:30:50.764Z,7.60
2024-03-12T06:33:20.407Z,7.70
2024-03-12T06:35:48.987Z,7.60
2024-03-12T06:38:21.665Z,7.60
2024-03-12T06:40:51.445Z,7.60
2024-03-12T06:43:21.423Z,7.60
2024-03-12T06:45:48.483Z,7.60
2024-03-12T06:48:19.418Z,7.60
2024-03-12T06:50:47.077Z,7.60
2024-03-12T06:53:15.627Z,7.50
2024-03-12T06:55:42.886Z,7.50
2024-03-12T06:58:13.123Z,7.50
2024-03-12T07:00:45.700Z,7.60
2024-03-12T07:03:15.798Z,7.50
2024-03-12T07:05:48.222Z,7.60
2024-03-12T07:08:18.157Z,7.60
2024-03-12T07:10:46.386Z,7.60
2024-03-12T07:13:14.081Z,7.60
2024-03-12T07:15:42.837Z,7.70
2024-03-12T07:18:12.918Z,7.60
2024-03-12T07:20:40.467Z,7.70
2024-03-12T07:23:07.943Z,7.70
2024-03-12T07:25:35.059Z,7.70
2024-03-12T07:28:09.486Z,7.70
2024-03-12T07:30:41.820Z,7.70
2024-03-12T07:33:08.769Z,7.70
2024-03-12T07:35:36.233Z,7.60
2024-03-12T07:38:04.455Z,7.70
2024-03-12T07:40:31.912Z,7.60
2024-03-12T07:43:00.168Z,7.70
2024-03-12T07:45:27.894Z,7.60
2024-03-12T07:47:54.961Z,7.60
2024-03-12T07:50:22.657Z,7.60
2024-03-12T07:52:49.483Z,7.60
2024-03-12T07:55:16.487Z,7.60
2024-03-12T07:57:46.514Z,7.70
2024-03-12T08:00:17.410Z,7.70
2024-03-12T08:02:44.526Z,7.70
2024-03-12T08:05:13.375Z,7.70
2024-03-12T08:07:40.298Z,7.80
2024-03-12T08:10:07.702Z,7.80
2024-03-12T08:12:37.038Z,7.70
2024-03-12T08:15:08.280Z,7.70
2024-03-12T08:17:35.074Z,7.70
2024-03-12T08:20:01.816Z,7.70
2024-03-12T08:22:30.023Z,7.60
2024-03-12T08:24:56.721Z,7.70
2024-03-12T08:27:23.905Z,7.70
2024-03-12T08:29:50.793Z,7.70
2024-03-12T08:32:21.959Z,7.70
2024-03-12T08:34:48.635Z,7.70
2024-03-12T08:37:15.619Z,7.80
2024-03-12T08:39:42.556Z,7.80
2024-03-12T08:42:11.236Z,7.70
2024-03-12T08:44:38.492Z,7.70
2024-03-12T08:47:06.194Z,7.70
2024-03-12T08:49:34.493Z,7.70
2024-03-12T08:52:01.302Z,7.70
2024-03-12T08:54:28.721Z,7.70
2024-03-12T08:56:55.897Z,7.70
2024-03-12T08:59:22.796Z,7.70
2024-03-12T09:01:52.423Z,7.80
2024-03-12T09:04:20.578Z,7.80
2024-03-12T09:06:50.712Z,7.80
2024-03-12T09:09:19.686Z,7.80
2024-03-12T09:11:47.814Z,7.90
2024-03-12T09:14:14.821Z,7.90
2024-03-12T09:16:41.993Z,7.90
2024-03-12T09:19:10.239Z,7.90
2024-03-12T09:21:37.668Z,7.90
2024-03-12T09:24:06.302Z,8.00
2024-03-12T09:26:34.798Z,8.10
2024-03-12T09:29:02.046Z,7.90
2024-03-12T09:31:29.125Z,8.10
2024-03-12T09:33:56.630Z,8.00
2024-03-12T09:36:25.666Z,8.10
2024-03-12T09:38:52.738Z,8.00
2024-03-12T09:41:22.281Z,8.00
2024-03-12T09:43:50.005Z,8.10
2024-03-12T09:46:18.517Z,8.10
2024-03-12T09:48:47.149Z,8.00
2024-03-12T09:51:14.554Z,8.00
2024-03-12T09:53:43.280Z,8.10
2024-03-12T09:56:12.187Z,8.10
2024-03-12T09:58:39.559Z,8.10
2024-03-12T10:01:07.497Z,8.10
2024-03-12T10:03:38.389Z,8.10
2024-03-12T10:06:07.996Z,8.00
2024-03-12T10:08:36.243Z,8.10
2024-03-12T10:11:09.791Z,8.10
2024-03-12T10:13:37.683Z,7.90
2024-03-12T10:16:05.221Z,8.00
2024-03-12T10:18:34.467Z,8.00
2024-03-12T10:21:04.772Z,8.00
2024-03-12T10:23:36.854Z,8.10
2024-03-12T10:26:10.584Z,8.20
2024-03-12T10:28:38.978Z,8.30
2024-03-12T10:31:11.866Z,8.40
2024-03-12T10:33:49.487Z,8.40
2024-03-12T10:36:33.361Z,8.40
2024-03-12T10:39:01.220Z,8.50
2024-03-12T10:41:29.627Z,8.50
2024-03-12T10:44:11.930Z,8.60
2024-03-12T10:46:44.586Z,8.70
2024-03-12T10:49:19.116Z,8.70
2024-03-12T10:51:47.147Z,8.60
2024-03-12T10:54:15.414Z,8.60
2024-03-12T10:56:43.168Z,8.60
2024-03-12T10:59:13.496Z,8.70
2024-03-12T11:01:41.860Z,8.60
2024-03-12T11:04:13.801Z,8.70
2024-03-12T11:06:40.894Z,8.70
2024-03-12T11:09:09.228Z,8.80
2024-03-12T11:11:36.417Z,8.70
2024-03-12T11:14:07.976Z,8.80
2024-03-12T11:16:37.714Z,8.70
2024-03-12T11:19:20.127Z,8.80
2024-03-12T11:21:51.282Z,8.80
2024-03-12T11:24:43.934Z,8.90
2024-03-12T11:27:35.830Z,9.00
2024-03-12T11:30:06.446Z,9.20
2024-03-12T11:32:43.304Z,9.30
2024-03-12T11:35:19.244Z,9.40
2024-03-12T11:38:01.882Z,9.50
2024-03-12T11:40:32.726Z,9.60
2024-03-12T11:43:00.259Z,9.70
2024-03-12T11:45:48.220Z,9.80
2024-03-12T11:48:23.160Z,9.70
2024-03-12T11:50:57.355Z,9.70
2024-03-12T11:53:26.869Z,9.60
2024-03-12T11:56:12.019Z,9.70
2024-03-12T11:58:53.621Z,9.60
2024-03-12T12:01:27.528Z,9.60
2024-03-12T12:04:01.758Z,9.80
2024-03-12T12:06:29.250Z,9.90
2024-03-12T12:09:00.688Z,10.10
2024-03-12T12:11:30.021Z,10.20
2024-03-12T12:14:00.557Z,10.20
2024-03-12T12:16:29.516Z,10.30
2024-03-12T12:19:06.649Z,10.40
2024-03-12T12:21:34.638Z,10.40
2024-03-12T12:24:05.140Z,10.40
2024-03-12T12:26:37.755Z,10.40
2024-03-12T12:29:05.747Z,10.40
2024-03-12T12:31:38.202Z,10.30
2024-03-12T12:34:07.703Z,10.30
2024-03-12T12:36:39.584Z,10.30
2024-03-12T12:39:11.224Z,10.40
2024-03-12T12:41:43.785Z,10.40
2024-03-12T12:44:16.969Z,10.50
2024-03-12T12:46:45.254Z,10.50
2024-03-12T12:49:15.072Z,10.50
2024-03-12T12:51:43.135Z,10.60
2024-03-12T12:54:10.808Z,10.60
2024-03-12T12:56:42.733Z,10.50
2024-03-12T12:59:17.786Z,10.40
2024-03-12T13:01:49.510Z,10.40
2024-03-12T13:04:25.577Z,10.40
2024-03-12T13:06:56.081Z,10.50
2024-03-12T13:09:28.849Z,10.40
2024-03-12T13:11:57.439Z,10.40
2024-03-12T13:14:28.017Z,10.30
2024-03-12T13:16:55.593Z,10.10
2024-03-12T13:19:24.039Z,10.10
2024-03-12T13:21:51.730Z,9.90
2024-03-12T13:24:21.393Z,9.80
2024-03-12T13:26:52.801Z,9.80
2024-03-12T13:29:19.828Z,9.70
2024-03-12T13:31:47.750Z,9.70
2024-03-12T13:34:17.603Z,9.60
2024-03-12T13:36:45.705Z,9.50
2024-03-12T13:39:16.391Z,9.40
2024-03-12T13:41:43.666Z,9.40
2024-03-12T13:44:18.297Z,9.50
2024-03-12T13:46:45.201Z,9.40
2024-03-12T13:49:15.705Z,9.50
2024-03-12T13:51:48.911Z,9.60
2024-03-12T13:54:18.851Z,9.60
2024-03-12T13:56:46.635Z,9.70
2024-03-12T13:59:28.053Z,9.80
2024-03-12T14:01:55.069Z,9.90
2024-03-12T14:04:22.476Z,10.00
2024-03-12T14:06:49.553Z,10.10
2024-03-12T14:09:16.636Z,10.20
2024-03-12T14:11:43.700Z,10.30
2024-03-12T14:14:11.115Z,10.30
2024-03-12T14:19:07.093Z,10.40
2024-03-12T14:21:34.738Z,10.50
2024-03-12T14:24:04.031Z,10.50
2024-03-12T14:26:31.204Z,10.50
2024-03-12T14:28:58.051Z,10.50
2024-03-12T14:31:26.622Z,10.50
2024-03-12T14:33:53.946Z,10.40
2024-03-12T14:36:21.035Z,10.40
2024-03-12T14:38:50.098Z,10.30
2024-03-12T14:41:19.113Z,10.30
2024-03-12T14:43:46.013Z,10.30
2024-03-12T14:46:13.588Z,10.20
2024-03-12T14:48:40.618Z,10.30
2024-03-12T14:51:07.755Z,10.30
2024-03-12T14:53:34.564Z,10.20
2024-03-12T14:56:02.835Z,10.20
2024-03-12T14:58:29.851Z,10.20
2024-03-12T15:00:56.865Z,10.20
2024-03-12T15:05:58.719Z,10.40
2024-03-12T15:08:25.618Z,10.30
2024-03-12T15:10:53.110Z,10.30
2024-03-12T15:13:21.562Z,10.30
2024-03-12T15:15:48.514Z,10.40
2024-03-12T15:18:15.585Z,10.40
2024-03-12T15:20:43.381Z,10.40
2024-03-12T15:23:10.791Z,10.40
2024-03-12T15:25:37.858Z,10.40
2024-03-12T15:28:05.361Z,10.50
2024-03-12T15:30:34.586Z,10.60
2024-03-12T15:33:01.850Z,10.60
2024-03-12T15:35:29.117Z,10.60
2024-03-12T15:37:59.462Z,10.50
2024-03-12T15:40:26.449Z,10.60
2024-03-12T15:42:53.633Z,10.50
2024-03-12T15:45:21.847Z,10.40
2024-03-12T15:47:48.842Z,10.30
2024-03-12T15:50:18.934Z,10.30
2024-03-12T15:52:46.488Z,10.20
2024-03-12T15:55:14.341Z,10.20
2024-03-12T15:57:43.294Z,10.10
2024-03-12T16:00:14.747Z,10.00
2024-03-12T16:02:42.432Z,9.80
2024-03-12T16:05:09.643Z,9.80
2024-03-12T16:07:36.612Z,9.60
2024-03-12T16:10:05.380Z,9.60
2024-03-12T16:12:32.533Z,9.60
2024-03-12T16:14:59.620Z,9.60
2024-03-12T16:19:57.653Z,9.40
2024-03-12T16:22:24.583Z,9.30
2024-03-12T16:24:51.548Z,9.30
2024-03-12T16:27:18.464Z,9.30
2024-03-12T16:29:47.476Z,9.20
2024-03-12T16:32:14.415Z,9.20
2024-03-12T16:34:41.286Z,9.20
2024-03-12T16:37:09.895Z,9.20
2024-03-12T16:39:39.782Z,9.10
2024-03-12T16:42:07.192Z,9.10
2024-03-12T16:44:34.065Z,9.10
2024-03-12T16:47:05.777Z,9.00
2024-03-12T16:49:34.057Z,9.00
2024-03-12T16:52:02.284Z,8.90
2024-03-12T16:54:31.247Z,8.80
2024-03-12T16:56:59.926Z,8.80
2024-03-12T17:01:55.048Z,8.90
2024-03-12T17:04:24.705Z,8.90
2024-03-12T17:06:59.398Z,8.90
2024-03-12T17:09:26.543Z,8.90
2024-03-12T17:11:53.864Z,8.80
2024-03-12T17:14:27.650Z,8.90
2024-03-12T17:17:00.718Z,8.90
2024-03-12T17:19:28.527Z,9.00
2024-03-12T17:22:17.292Z,9.00
2024-03-12T17:24:52.076Z,9.00
2024-03-12T17:27:20.292Z,9.00
2024-03-12T17:29:50.363Z,9.00
2024-03-12T17:32:17.664Z,9.00
2024-03-12T17:34:44.805Z,8.90
2024-03-12T17:37:16.981Z,9.00
2024-03-12T17:39:49.062Z,8.90
2024-03-12T17:42:21.142Z,9.00
2024-03-12T17:44:52.062Z,9.10
2024-03-12T17:47:22.116Z,9.10
2024-03-12T17:49:53.105Z,9.00
2024-03-12T17:52:20.255Z,8.90
2024-03-12T17:54:47.662Z,8.90
2024-03-12T17:57:15.647Z,8.90
2024-03-12T17:59:44.364Z,9.00
2024-03-12T18:02:13.803Z,9.00
2024-03-12T18:04:41.877Z,9.10
2024-03-12T18:07:23.286Z,9.10
2024-03-12T18:09:58.034Z,9.20
2024-03-12T18:12:25.104Z,9.20
2024-03-12T18:14:52.198Z,9.20
2024-03-12T18:17:21.822Z,9.20
2024-03-12T18:19:48.934Z,9.30
2024-03-12T18:22:17.345Z,9.30
2024-03-12T18:24:45.150Z,9.30
2024-03-12T18:27:11.951Z,9.30
2024-03-12T18:29:39.077Z,9.30
2024-03-12T18:32:07.327Z,9.30
2024-03-12T18:34:34.433Z,9.30
2024-03-12T18:37:02.877Z,9.30
2024-03-12T18:39:29.655Z,9.20
2024-03-12T18:41:56.502Z,9.20
2024-03-12T18:44:23.277Z,9.10
2024-03-12T18:46:50.632Z,9.00
2024-03-12T18:49:19.527Z,9.00
2024-03-12T18:52:05.740Z,9.00
2024-03-12T18:54:46.250Z,9.00
2024-03-12T18:57:35.761Z,9.00
2024-03-12T19:00:32.333Z,9.00
2024-03-12T19:03:16.546Z,9.00
2024-03-12T19:06:07.373Z,9.00
2024-03-12T19:09:01.834Z,8.90
2024-03-12T19:11:39.151Z,8.90
2024-03-12T19:14:23.955Z,8.90
2024-03-12T19:17:16.212Z,8.90
2024-03-12T19:20:01.489Z,8.90
2024-03-12T19:22:35.322Z,8.90
2024-03-12T19:25:25.208Z,8.90
2024-03-12T19:28:13.908Z,8.90
2024-03-12T19:30:59.374Z,8.90
2024-03-12T19:33:31.891Z,9.00
2024-03-12T19:36:13.982Z,9.00
2024-03-12T19:38:59.029Z,9.10
2024-03-12T19:41:39.142Z,9.00
2024-03-12T19:44:09.864Z,9.00
2024-03-12T19:46:43.964Z,8.90
2024-03-12T19:49:17.279Z,9.00
2024-03-12T19:51:55.739Z,9.00
2024-03-12T19:54:30.424Z,9.00
2024-03-12T19:57:13.586Z,8.90
2024-03-12T20:00:04.305Z,8.90
2024-03-12T20:02:49.398Z,8.80
2024-03-12T20:05:29.801Z,8.70
2024-03-12T20:08:07.385Z,8.60
2024-03-12T20:10:50.907Z,8.50
2024-03-12T20:13:38.078Z,8.50
2024-03-12T20:16:20.479Z,8.40
2024-03-12T20:19:06.231Z,8.20
2024-03-12T20:21:42.450Z,8.20
2024-03-12T20:24:18.642Z,8.30
2024-03-12T20:26:49.093Z,8.30
2024-03-12T20:29:32.176Z,8.30
2024-03-12T20:31:59.572Z,8.30
2024-03-12T20:34:39.907Z,8.40
2024-03-12T20:37:27.265Z,8.40
2024-03-12T20:39:59.283Z,8.40
2024-03-12T20:42:40.340Z,8.40
2024-03-12T20:45:11.815Z,8.30
2024-03-12T20:47:42.661Z,8.40
2024-03-12T20:50:24.500Z,8.40
2024-03-12T20:53:04.870Z,8.30
2024-03-12T20:55:45.832Z,8.30
2024-03-12T20:58:27.755Z,8.30
2024-03-12T21:01:05.256Z,8.20
2024-03-12T21:03:36.108Z,8.30
2024-03-12T21:06:10.388Z,8.20
2024-03-12T21:08:59.508Z,8.30
2024-03-12T21:11:43.176Z,8.20
2024-03-12T21:14:30.558Z,8.10
2024-03-12T21:17:10.461Z,8.10
2024-03-12T21:19:52.392Z,8.00
2024-03-12T21:22:28.891Z,8.10
2024-03-12T21:25:22.458Z,8.00
2024-03-12T21:27:55.329Z,8.10
2024-03-12T21:30:26.472Z,8.10
2024-03-12T21:33:03.465Z,8.30
2024-03-12T21:35:30.614Z,8.30
2024-03-12T21:40:53.234Z,8.30
2024-03-12T21:43:25.905Z,8.40
2024-03-12T21:46:01.026Z,8.40
2024-03-12T21:48:45.030Z,8.40
2024-03-12T21:51:23.283Z,8.40
2024-03-12T21:54:15.773Z,8.50
2024-03-12T21:56:54.783Z,8.50
2024-03-12T21:59:39.403Z,8.60
2024-03-12T22:02:33.440Z,8.60
2024-03-12T22:05:27.398Z,8.60
2024-03-12T22:08:05.923Z,8.60
2024-03-12T22:10:48.720Z,8.70
2024-03-12T22:13:31.711Z,8.70
2024-03-12T22:16:14.168Z,8.70
2024-03-12T22:19:10.052Z,8.70
2024-03-12T22:22:26.958Z,8.70
2024-03-12T22:25:06.519Z,8.70
2024-03-12T22:28:06.116Z,8.70
2024-03-12T22:31:19.193Z,8.70
2024-03-12T22:34:08.141Z,8.70
2024-03-12T22:36:54.644Z,8.70
2024-03-12T22:39:52.256Z,8.70
2024-03-12T22:42:42.612Z,8.70
2024-03-12T22:45:41.898Z,8.70
2024-03-12T22:48:48.044Z,8.70
2024-03-12T22:51:55.792Z,8.80
2024-03-12T22:54:47.825Z,8.80
2024-03-12T23:01:20.213Z,8.90
2024-03-12T23:04:14.837Z,8.90
2024-03-12T23:07:19.892Z,8.90
2024-03-12T23:10:31.985Z,9.00
2024-03-12T23:13:14.871Z,9.00
2024-03-12T23:16:05.049Z,9.00
2024-03-12T23:18:56.804Z,9.00
2024-03-12T23:24:50.049Z,9.10
2024-03-12T23:27:59.173Z,9.10
2024-03-12T23:31:00.973Z,9.10
2024-03-12T23:36:34.215Z,9.00
2024-03-12T23:39:01.170Z,9.00
2024-03-12T23:41:31.263Z,9.00
2024-03-12T23:43:58.485Z,9.10
2024-03-12T23:46:25.852Z,9.00
2024-03-12T23:48:56.723Z,9.00
2024-03-12T23:51:26.313Z,9.00
2024-03-12T23:53:55.528Z,9.10
2024-03-12T23:56:22.660Z,9.10
2024-03-12T23:58:49.483Z,9.00
